| time (UTC) | temp C | wind direction | speed KPH | gust KPH | rain 1hr cm | rain 24hr cm | rain mn cm | humidity % | barometer mb |
| 20260506060106 | 11 | 355 | 3.2 | 12.9 | 0.00 | 0.08 | 0.00 | 60 | 1013.8 |
| 20260506051229 | 11 | 53 | 3.2 | 8.0 | 0.00 | 0.08 | 0.08 | 63 | 1014.1 |
| 20260506050500 | 11 | 32 | 3.2 | 9.7 | 0.00 | 0.08 | 0.08 | 64 | 1013.9 |
| 20260506044942 | 10 | 355 | 1.6 | 8.0 | 0.00 | 0.08 | 0.08 | 65 | 1013.9 |
| 20260506044436 | 10 | 52 | 3.2 | 11.3 | 0.00 | 0.08 | 0.08 | 65 | 1013.9 |
| 20260506043930 | 11 | 355 | 3.2 | 12.9 | 0.00 | 0.08 | 0.08 | 64 | 1013.8 |
| 20260506043424 | 11 | 43 | 4.8 | 14.5 | 0.00 | 0.08 | 0.08 | 64 | 1013.8 |
| 20260506042918 | 11 | 34 | 6.4 | 14.5 | 0.00 | 0.08 | 0.08 | 64 | 1013.7 |
| 20260506042412 | 11 | 333 | 6.4 | 17.7 | 0.00 | 0.08 | 0.08 | 63 | 1013.7 |
| 20260506041906 | 11 | 348 | 6.4 | 17.7 | 0.00 | 0.08 | 0.08 | 62 | 1013.5 |
| 20260506041400 | 11 | 349 | 6.4 | 14.5 | 0.00 | 0.08 | 0.08 | 62 | 1013.2 |
| 20260506040854 | 11 | 45 | 6.4 | 14.5 | 0.00 | 0.08 | 0.08 | 62 | 1013.2 |
| 20260506040348 | 11 | 348 | 6.4 | 14.5 | 0.00 | 0.08 | 0.08 | 61 | 1013.2 |
| 20260506035842 | 11 | 344 | 6.4 | 14.5 | 0.00 | 0.08 | 0.08 | 63 | 1013.2 |
| 20260506035336 | 11 | 5 | 6.4 | 19.3 | 0.00 | 0.08 | 0.08 | 63 | 1013.1 |
| 20260506034830 | 11 | 333 | 4.8 | 19.3 | 0.00 | 0.08 | 0.08 | 64 | 1013.0 |
| 20260506034324 | 11 | 49 | 4.8 | 17.7 | 0.00 | 0.08 | 0.08 | 64 | 1013.1 |
| 20260506033818 | 11 | 18 | 6.4 | 17.7 | 0.00 | 0.08 | 0.08 | 65 | 1013.1 |
| 20260506033312 | 11 | 338 | 6.4 | 24.1 | 0.00 | 0.08 | 0.08 | 65 | 1013.1 |
| 20260506032806 | 11 | 47 | 8.0 | 24.1 | 0.00 | 0.08 | 0.08 | 65 | 1012.8 |
| 20260506032306 | 11 | 69 | 8.0 | 29.0 | 0.00 | 0.08 | 0.08 | 65 | 1012.8 |
| 20260506031806 | 11 | 68 | 8.0 | 29.0 | 0.00 | 0.08 | 0.08 | 64 | 1012.8 |
| 20260506031306 | 11 | 77 | 8.0 | 20.9 | 0.00 | 0.08 | 0.08 | 64 | 1012.7 |
| 20260506031028 | 11 | 22 | 8.0 | 20.9 | 0.00 | 0.08 | 0.08 | 64 | 1012.7 |
| 20260506030305 | 11 | 36 | 8.0 | 19.3 | 0.00 | 0.08 | 0.08 | 63 | 1012.7 |
| 20260506025806 | 11 | 49 | 8.0 | 19.3 | 0.00 | 0.08 | 0.08 | 63 | 1012.7 |
| 20260506025306 | 11 | 43 | 8.0 | 19.3 | 0.00 | 0.08 | 0.08 | 62 | 1012.5 |
| 20260506024806 | 11 | 40 | 9.7 | 25.7 | 0.00 | 0.08 | 0.08 | 62 | 1012.3 |
| 20260506024306 | 12 | 27 | 11.3 | 25.7 | 0.00 | 0.08 | 0.08 | 61 | 1012.1 |
| 20260506023806 | 12 | 303 | 11.3 | 24.1 | 0.00 | 0.08 | 0.08 | 59 | 1012.3 |
| 20260506023306 | 12 | 338 | 12.9 | 27.4 | 0.00 | 0.08 | 0.08 | 58 | 1012.0 |
| 20260506022806 | 13 | 31 | 12.9 | 27.4 | 0.00 | 0.08 | 0.08 | 55 | 1011.7 |
| 20260506022306 | 13 | 17 | 11.3 | 25.7 | 0.00 | 0.08 | 0.08 | 54 | 1011.7 |
| 20260506022024 | 13 | 355 | 6.4 | 24.1 | 0.00 | 0.08 | 0.08 | 53 | 1011.4 |
| 20260506021306 | 14 | 342 | 1.6 | 6.4 | 0.00 | 0.08 | 0.08 | 55 | 1011.2 |
| 20260506020806 | 14 | 298 | 1.6 | 3.2 | 0.00 | 0.08 | 0.08 | 54 | 1011.0 |
| 20260506020305 | 14 | 226 | 1.6 | 8.0 | 0.00 | 0.08 | 0.08 | 53 | 1010.8 |
| 20260506015806 | 14 | 225 | 3.2 | 8.0 | 0.00 | 0.08 | 0.08 | 53 | 1010.5 |
| 20260506015306 | 15 | 225 | 3.2 | 11.3 | 0.00 | 0.08 | 0.08 | 52 | 1010.3 |
| 20260506014805 | 15 | 205 | 4.8 | 14.5 | 0.00 | 0.08 | 0.08 | 51 | 1010.2 |
| 20260506014306 | 15 | 217 | 6.4 | 14.5 | 0.00 | 0.08 | 0.08 | 50 | 1010.1 |
| 20260506013805 | 15 | 217 | 6.4 | 11.3 | 0.00 | 0.08 | 0.08 | 50 | 1010.1 |
| 20260506013306 | 15 | 205 | 8.0 | 14.5 | 0.00 | 0.08 | 0.08 | 50 | 1010.0 |
| 20260506012806 | 15 | 215 | 6.4 | 14.5 | 0.00 | 0.08 | 0.08 | 49 | 1009.8 |
| 20260506012308 | 15 | 210 | 4.8 | 12.9 | 0.00 | 0.08 | 0.08 | 49 | 1010.0 |
| 20260506011805 | 15 | 209 | 3.2 | 11.3 | 0.00 | 0.08 | 0.08 | 50 | 1010.1 |
| 20260506011530 | 15 | 219 | 3.2 | 8.0 | 0.00 | 0.08 | 0.08 | 50 | 1010.0 |
| 20260506010805 | 15 | 221 | 3.2 | 8.0 | 0.00 | 0.08 | 0.08 | 52 | 1009.7 |
| 20260506010525 | 15 | 222 | 3.2 | 8.0 | 0.00 | 0.08 | 0.08 | 49 | 1009.8 |
| 20260506005805 | 15 | 225 | 3.2 | 6.4 | 0.00 | 0.08 | 0.08 | 53 | 1009.7 |
| 20260506005306 | 15 | 309 | 1.6 | 6.4 | 0.00 | 0.08 | 0.08 | 54 | 1009.8 |
| 20260506004805 | 15 | 227 | 3.2 | 8.0 | 0.00 | 0.08 | 0.08 | 56 | 1010.1 |
| 20260506004305 | 15 | 267 | 3.2 | 9.7 | 0.00 | 0.08 | 0.08 | 53 | 1010.1 |
| 20260506003804 | 15 | 267 | 3.2 | 9.7 | 0.00 | 0.08 | 0.08 | 55 | 1009.8 |
| 20260506003303 | 15 | 126 | 3.2 | 9.7 | 0.00 | 0.08 | 0.08 | 53 | 1009.8 |
| 20260506002803 | 15 | 121 | 3.2 | 9.7 | 0.00 | 0.08 | 0.08 | 52 | 1010.1 |
| 20260506002305 | 16 | 117 | 3.2 | 6.4 | 0.00 | 0.08 | 0.08 | 51 | 1010.0 |
| 20260506001759 | 16 | 118 | 3.2 | 6.4 | 0.00 | 0.08 | 0.08 | 51 | 1009.8 |
| 20260506001257 | 16 | 120 | 3.2 | 8.0 | 0.00 | 0.08 | 0.08 | 51 | 1009.6 |
| 20260506000755 | 16 | 166 | 4.8 | 12.9 | 0.00 | 0.08 | 0.08 | 51 | 1009.5 |
| 20260506000255 | 16 | 148 | 4.8 | 12.9 | 0.00 | 0.08 | 0.08 | 49 | 1009.6 |
| 20260506000021 | 16 | 167 | 4.8 | 9.7 | 0.00 | 0.08 | 0.08 | 50 | 1009.6 |
| 20260505235252 | 17 | 157 | 3.2 | 9.7 | 0.00 | 0.08 | 0.08 | 48 | 1009.7 |
| 20260505234746 | 17 | 134 | 4.8 | 11.3 | 0.00 | 0.08 | 0.08 | 48 | 1009.7 |
| 20260505234240 | 17 | 85 | 4.8 | 12.9 | 0.00 | 0.08 | 0.08 | 50 | 1009.6 |
| 20260505233734 | 17 | 74 | 4.8 | 12.9 | 0.00 | 0.08 | 0.08 | 51 | 1009.7 |
| 20260505233228 | 17 | 88 | 6.4 | 12.9 | 0.00 | 0.08 | 0.08 | 50 | 1009.7 |
| 20260505232722 | 17 | 106 | 8.0 | 14.5 | 0.00 | 0.08 | 0.08 | 51 | 1009.7 |
| 20260505232216 | 17 | 138 | 8.0 | 14.5 | 0.00 | 0.08 | 0.08 | 51 | 1009.6 |
| 20260505231711 | 16 | 90 | 4.8 | 11.3 | 0.00 | 0.08 | 0.08 | 54 | 1009.8 |
| 20260505231204 | 16 | 121 | 6.4 | 14.5 | 0.00 | 0.08 | 0.08 | 54 | 1010.2 |
| 20260505230659 | 16 | 141 | 6.4 | 14.5 | 0.00 | 0.08 | 0.08 | 53 | 1010.2 |
| 20260505230152 | 16 | 99 | 4.8 | 14.5 | 0.00 | 0.08 | 0.08 | 56 | 1010.2 |
| 20260505225647 | 16 | 128 | 4.8 | 14.5 | 0.00 | 0.08 | 0.08 | 58 | 1010.2 |
| 20260505225140 | 16 | 85 | 3.2 | 11.3 | 0.00 | 0.08 | 0.08 | 59 | 1010.1 |
| 20260505225122 | 15 | 96 | 3.2 | 8.0 | 0.05 | 0.08 | 0.08 | 57 | 1010.2 |
| 20260505224128 | 15 | 173 | 3.2 | 6.4 | 0.05 | 0.08 | 0.08 | 59 | 1010.3 |
| 20260505223623 | 15 | 88 | 3.2 | 6.4 | 0.05 | 0.08 | 0.08 | 60 | 1010.3 |
| 20260505223116 | 15 | 114 | 3.2 | 11.3 | 0.05 | 0.08 | 0.08 | 68 | 1010.4 |
| 20260505222611 | 14 | 140 | 4.8 | 11.3 | 0.05 | 0.08 | 0.08 | 66 | 1010.7 |
| 20260505222325 | 13 | 214 | 4.8 | 11.3 | 0.05 | 0.08 | 0.08 | 75 | 1010.9 |
| 20260505221558 | 13 | 173 | 4.8 | 9.7 | 0.05 | 0.08 | 0.08 | 72 | 1011.0 |
| 20260505221052 | 13 | 205 | 6.4 | 14.5 | 0.05 | 0.08 | 0.08 | 71 | 1010.9 |
| 20260505220546 | 13 | 215 | 8.0 | 27.4 | 0.05 | 0.08 | 0.08 | 72 | 1010.9 |
| 20260505220042 | 13 | 213 | 9.7 | 27.4 | 0.05 | 0.08 | 0.08 | 70 | 1011.2 |
| 20260505215535 | 14 | 279 | 6.4 | 24.1 | 0.05 | 0.08 | 0.08 | 65 | 1011.6 |
| 20260505215029 | 15 | 210 | 4.8 | 22.5 | 0.05 | 0.08 | 0.08 | 62 | 1011.6 |
| 20260505214523 | 16 | 314 | 4.8 | 14.5 | 0.00 | 0.03 | 0.03 | 58 | 1011.5 |
| 20260505214017 | 16 | 280 | 3.2 | 11.3 | 0.00 | 0.03 | 0.03 | 47 | 1011.2 |
| 20260505213735 | 16 | 351 | 3.2 | 8.0 | 0.00 | 0.03 | 0.03 | 47 | 1011.2 |
| 20260505213005 | 16 | 240 | 3.2 | 8.0 | 0.00 | 0.03 | 0.03 | 47 | 1011.1 |
| 20260505212459 | 16 | 198 | 3.2 | 8.0 | 0.00 | 0.03 | 0.03 | 47 | 1011.0 |
| 20260505211953 | 16 | 81 | 3.2 | 8.0 | 0.00 | 0.03 | 0.03 | 47 | 1011.0 |
| 20260505211447 | 16 | 271 | 3.2 | 11.3 | 0.00 | 0.03 | 0.03 | 48 | 1011.1 |
| 20260505210941 | 16 | 294 | 3.2 | 12.9 | 0.00 | 0.03 | 0.03 | 48 | 1011.4 |
| 20260505210435 | 16 | 67 | 3.2 | 12.9 | 0.00 | 0.03 | 0.03 | 47 | 1011.2 |
| 20260505205929 | 17 | 252 | 3.2 | 8.0 | 0.00 | 0.03 | 0.03 | 47 | 1011.4 |
| 20260505205423 | 16 | 221 | 3.2 | 8.0 | 0.00 | 0.03 | 0.03 | 48 | 1011.2 |
| 20260505204917 | 16 | 103 | 1.6 | 4.8 | 0.00 | 0.03 | 0.03 | 50 | 1011.2 |
| 20260505204411 | 16 | 34 | 3.2 | 6.4 | 0.00 | 0.03 | 0.03 | 49 | 1011.1 |
| 20260505203905 | 16 | 58 | 3.2 | 9.7 | 0.00 | 0.03 | 0.03 | 49 | 1011.5 |
| 20260505203359 | 16 | 68 | 3.2 | 16.1 | 0.00 | 0.03 | 0.03 | 50 | 1011.5 |
| 20260505202853 | 17 | 288 | 6.4 | 16.1 | 0.00 | 0.03 | 0.03 | 47 | 1011.7 |
| 20260505202353 | 18 | 302 | 4.8 | 16.1 | 0.00 | 0.03 | 0.03 | 48 | 1011.6 |
| 20260505201853 | 17 | 20 | 3.2 | 14.5 | 0.00 | 0.03 | 0.03 | 47 | 1011.6 |
| 20260505201353 | 17 | 355 | 3.2 | 9.7 | 0.00 | 0.03 | 0.03 | 49 | 1011.5 |
| 20260505200851 | 17 | 43 | 3.2 | 11.3 | 0.00 | 0.03 | 0.03 | 48 | 1011.6 |
| 20260505200351 | 16 | 283 | 3.2 | 11.3 | 0.00 | 0.03 | 0.03 | 53 | 1011.6 |
| 20260505195851 | 16 | 300 | 4.8 | 11.3 | 0.00 | 0.03 | 0.03 | 53 | 1011.6 |
| 20260505195349 | 16 | 290 | 4.8 | 12.9 | 0.00 | 0.03 | 0.03 | 52 | 1011.7 |
| 20260505194847 | 16 | 217 | 6.4 | 14.5 | 0.03 | 0.03 | 0.03 | 54 | 1012.0 |
| 20260505194345 | 16 | 221 | 6.4 | 14.5 | 0.03 | 0.03 | 0.03 | 56 | 1011.8 |
| 20260505193845 | 15 | 207 | 6.4 | 16.1 | 0.03 | 0.03 | 0.03 | 58 | 1012.1 |
| 20260505193345 | 15 | 236 | 8.0 | 16.1 | 0.03 | 0.03 | 0.03 | 56 | 1012.1 |
| 20260505192845 | 15 | 165 | 6.4 | 12.9 | 0.03 | 0.03 | 0.03 | 56 | 1012.0 |
| 20260505192345 | 15 | 244 | 6.4 | 16.1 | 0.03 | 0.03 | 0.03 | 65 | 1012.2 |
| 20260505191844 | 15 | 171 | 6.4 | 16.1 | 0.03 | 0.03 | 0.03 | 60 | 1012.1 |
| 20260505191613 | 15 | 166 | 6.4 | 12.9 | 0.03 | 0.03 | 0.03 | 65 | 1012.2 |
| 20260505190845 | 14 | 198 | 6.4 | 16.1 | 0.03 | 0.03 | 0.03 | 65 | 1012.2 |
| 20260505190345 | 14 | 150 | 6.4 | 16.1 | 0.03 | 0.03 | 0.03 | 70 | 1012.3 |
| 20260505185844 | 13 | 155 | 6.4 | 12.9 | 0.03 | 0.03 | 0.03 | 72 | 1012.2 |
| 20260505185339 | 13 | 200 | 4.8 | 17.7 | 0.03 | 0.03 | 0.03 | 74 | 1012.2 |
| 20260505185053 | 13 | 189 | 6.4 | 17.7 | 0.00 | 0.00 | 0.00 | 76 | 1012.3 |
| 20260505184327 | 13 | 202 | 8.0 | 17.7 | 0.00 | 0.00 | 0.00 | 71 | 1012.3 |
| 20260505183821 | 14 | 235 | 9.7 | 20.9 | 0.00 | 0.00 | 0.00 | 67 | 1012.3 |
| 20260505183542 | 15 | 189 | 9.7 | 20.9 | 0.00 | 0.00 | 0.00 | 60 | 1012.3 |
| 20260505182809 | 15 | 218 | 11.3 | 20.9 | 0.00 | 0.00 | 0.00 | 52 | 1012.2 |
| 20260505182309 | 16 | 218 | 9.7 | 19.3 | 0.00 | 0.00 | 0.00 | 50 | 1012.1 |
| 20260505181808 | 16 | 228 | 8.0 | 17.7 | 0.00 | 0.00 | 0.00 | 52 | 1012.2 |
| 20260505181530 | 16 | 237 | 6.4 | 17.7 | 0.00 | 0.00 | 0.00 | 60 | 1012.1 |
| 20260505181029 | 16 | 235 | 4.8 | 17.7 | 0.00 | 0.00 | 0.00 | 53 | 1012.0 |
| 20260505180307 | 16 | 302 | 3.2 | 8.0 | 0.00 | 0.00 | 0.00 | 45 | 1012.0 |
| 20260505175806 | 16 | 207 | 3.2 | 8.0 | 0.00 | 0.00 | 0.00 | 43 | 1012.1 |
| 20260505175305 | 16 | 246 | 4.8 | 16.1 | 0.00 | 0.00 | 0.00 | 44 | 1012.0 |
| 20260505174805 | 17 | 223 | 6.4 | 16.1 | 0.00 | 0.00 | 0.00 | 44 | 1012.0 |
| 20260505174304 | 17 | 232 | 4.8 | 14.5 | 0.00 | 0.00 | 0.00 | 43 | 1011.8 |
| 20260505173805 | 17 | 196 | 4.8 | 14.5 | 0.00 | 0.00 | 0.00 | 43 | 1012.0 |
| 20260505173305 | 17 | 265 | 3.2 | 11.3 | 0.00 | 0.00 | 0.00 | 44 | 1011.8 |
| 20260505172804 | 16 | 285 | 3.2 | 8.0 | 0.00 | 0.00 | 0.00 | 42 | 1012.0 |
| 20260505172305 | 15 | 22 | 3.2 | 8.0 | 0.00 | 0.00 | 0.00 | 43 | 1011.8 |
| 20260505171801 | 15 | 47 | 1.6 | 6.4 | 0.00 | 0.00 | 0.00 | 44 | 1012.0 |
| 20260505171300 | 15 | 309 | 3.2 | 9.7 | 0.00 | 0.00 | 0.00 | 45 | 1012.1 |
| 20260505170756 | 15 | 321 | 3.2 | 12.9 | 0.00 | 0.00 | 0.00 | 45 | 1012.2 |
| 20260505170520 | 15 | 65 | 3.2 | 12.9 | 0.00 | 0.00 | 0.00 | 45 | 1012.7 |
| 20260505165756 | 15 | 53 | 3.2 | 6.4 | 0.00 | 0.00 | 0.00 | 46 | 1012.5 |
| 20260505165257 | 15 | 115 | 1.6 | 6.4 | 0.00 | 0.00 | 0.00 | 47 | 1012.4 |
| 20260505164757 | 14 | 164 | 1.6 | 6.4 | 0.00 | 0.00 | 0.00 | 48 | 1012.4 |
| 20260505164257 | 14 | 94 | 3.2 | 11.3 | 0.00 | 0.00 | 0.00 | 50 | 1012.2 |
| 20260505163756 | 13 | 344 | 3.2 | 11.3 | 0.00 | 0.00 | 0.00 | 49 | 1012.3 |
| 20260505163257 | 13 | 335 | 3.2 | 9.7 | 0.00 | 0.00 | 0.00 | 50 | 1012.5 |
| 20260505163008 | 13 | 331 | 3.2 | 11.3 | 0.00 | 0.00 | 0.00 | 53 | 1012.5 |
| 20260505162841 | 13 | 339 | 4.8 | 9.7 | 0.00 | 0.00 | 0.00 | 52 | 1012.4 |
| 20260505161757 | 12 | 5 | 3.2 | 11.3 | 0.00 | 0.00 | 0.00 | 53 | 1012.4 |
| 20260505161517 | 12 | 351 | 4.8 | 14.5 | 0.00 | 0.00 | 0.00 | 55 | 1012.8 |
| 20260505160757 | 12 | 355 | 4.8 | 14.5 | 0.00 | 0.00 | 0.00 | 56 | 1012.8 |
| 20260505160518 | 12 | 38 | 6.4 | 14.5 | 0.00 | 0.00 | 0.00 | 57 | 1012.8 |
| 20260505152756 | 12 | 0 | 6.4 | 16.1 | 0.00 | 0.00 | 0.00 | 59 | 1013.2 |
| 20260505152257 | 12 | 341 | 8.0 | 17.7 | 0.00 | 0.00 | 0.00 | 60 | 1013.2 |
| 20260505151756 | 13 | 309 | 8.0 | 17.7 | 0.00 | 0.00 | 0.00 | 59 | 1013.2 |
| 20260505151256 | 12 | 319 | 6.4 | 16.1 | 0.00 | 0.00 | 0.00 | 62 | 1013.2 |
| 20260505151020 | 12 | 346 | 4.8 | 12.9 | 0.00 | 0.00 | 0.00 | 63 | 1013.1 |
| 20260505150744 | 12 | 11 | 4.8 | 14.5 | 0.00 | 0.00 | 0.00 | 62 | 1013.1 |
| 20260505140213 | 13 | 69 | 9.7 | 27.4 | 0.00 | 0.00 | 0.00 | 52 | 1013.4 |
| 20260505124544 | 14 | 294 | 1.6 | 6.4 | 0.00 | 0.00 | 0.00 | 44 | 1011.8 |
| 20260505124037 | 14 | 293 | 1.6 | 4.8 | 0.00 | 0.00 | 0.00 | 44 | 1012.2 |
| 20260505123532 | 14 | 223 | 1.6 | 3.2 | 0.00 | 0.00 | 0.00 | 43 | 1012.2 |
| 20260505123026 | 14 | 286 | 0.0 | 4.8 | 0.00 | 0.00 | 0.00 | 43 | 1012.2 |
| 20260505122743 | 14 | 300 | 1.6 | 4.8 | 0.00 | 0.00 | 0.00 | 43 | 1012.2 |
| 20260505122246 | 14 | 254 | 1.6 | 6.4 | 0.00 | 0.00 | 0.00 | 43 | 1012.2 |
| 20260505121508 | 14 | 259 | 3.2 | 12.9 | 0.00 | 0.00 | 0.00 | 43 | 1012.2 |
| 20260505121002 | 14 | 211 | 3.2 | 12.9 | 0.00 | 0.00 | 0.00 | 42 | 1012.1 |
| 20260505120456 | 14 | 280 | 3.2 | 11.3 | 0.00 | 0.00 | 0.00 | 42 | 1012.1 |
| 20260505115950 | 14 | 284 | 1.6 | 11.3 | 0.00 | 0.00 | 0.00 | 40 | 1012.0 |
| 20260505115444 | 14 | 302 | 1.6 | 4.8 | 0.00 | 0.00 | 0.00 | 40 | 1012.0 |
| 20260505114938 | 14 | 319 | 1.6 | 3.2 | 0.00 | 0.00 | 0.00 | 40 | 1011.8 |
| 20260505114432 | 14 | 306 | 0.0 | 3.2 | 0.00 | 0.00 | 0.00 | 39 | 1011.8 |
| 20260505113926 | 14 | 5 | 0.0 | 1.6 | 0.00 | 0.00 | 0.00 | 40 | 1011.6 |
| 20260505113420 | 14 | 5 | 0.0 | 1.6 | 0.00 | 0.00 | 0.00 | 39 | 1011.6 |
| 20260505112914 | 14 | 5 | 0.0 | 1.6 | 0.00 | 0.00 | 0.00 | 39 | 1011.7 |
| 20260505112407 | 14 | 5 | 0.0 | 1.6 | 0.00 | 0.00 | 0.00 | 38 | 1011.7 |
| 20260505111902 | 15 | 11 | 0.0 | 3.2 | 0.00 | 0.00 | 0.00 | 38 | 1011.6 |
| 20260505111615 | 15 | 11 | 0.0 | 4.8 | 0.00 | 0.00 | 0.00 | 37 | 1011.6 |
| 20260505110850 | 15 | 182 | 1.6 | 6.4 | 0.00 | 0.00 | 0.00 | 36 | 1011.7 |
| 20260505110344 | 15 | 252 | 1.6 | 8.0 | 0.00 | 0.00 | 0.00 | 37 | 1011.8 |
| 20260505101749 | 14 | 211 | 1.6 | 6.4 | 0.00 | 0.00 | 0.00 | 37 | 1011.8 |
| 20260505101249 | 14 | 186 | 0.0 | 1.6 | 0.00 | 0.00 | 0.00 | 39 | 1011.8 |
| 20260505100748 | 14 | 186 | 0.0 | 1.6 | 0.00 | 0.00 | 0.00 | 38 | 1011.8 |
| 20260505100248 | 15 | 182 | 0.0 | 1.6 | 0.00 | 0.00 | 0.00 | 38 | 1011.7 |
| 20260505095748 | 15 | 181 | 0.0 | 0.0 | 0.00 | 0.00 | 0.00 | 38 | 1011.7 |
| 20260505095246 | 15 | 181 | 0.0 | 0.0 | 0.00 | 0.00 | 0.00 | 37 | 1011.8 |
| 20260505095008 | 15 | 181 | 0.0 | 3.2 | 0.00 | 0.00 | 0.00 | 37 | 1011.6 |
| 20260505094241 | 15 | 181 | 0.0 | 3.2 | 0.00 | 0.00 | 0.00 | 36 | 1011.7 |
| 20260505093740 | 15 | 181 | 0.0 | 3.2 | 0.00 | 0.00 | 0.00 | 35 | 1011.7 |
| 20260505093459 | 15 | 237 | 0.0 | 0.0 | 0.00 | 0.00 | 0.00 | 36 | 1011.6 |
| 20260505092738 | 15 | 237 | 0.0 | 0.0 | 0.00 | 0.00 | 0.00 | 35 | 1011.6 |
| 20260505092238 | 15 | 237 | 0.0 | 1.6 | 0.00 | 0.00 | 0.00 | 34 | 1011.7 |
| 20260505091738 | 15 | 237 | 1.6 | 3.2 | 0.00 | 0.00 | 0.00 | 35 | 1012.0 |
| 20260505091238 | 15 | 237 | 1.6 | 4.8 | 0.00 | 0.00 | 0.00 | 35 | 1011.7 |
| 20260505090736 | 15 | 237 | 1.6 | 4.8 | 0.00 | 0.00 | 0.00 | 34 | 1011.8 |
| 20260505090446 | 16 | 306 | 0.0 | 4.8 | 0.00 | 0.00 | 0.00 | 34 | 1012.1 |
| 20260505090332 | 15 | 290 | 0.0 | 4.8 | 0.00 | 0.00 | 0.00 | 34 | 1012.0 |
| 20260505085234 | 16 | 306 | 1.6 | 4.8 | 0.00 | 0.00 | 0.00 | 33 | 1012.2 |
| 20260505084732 | 16 | 323 | 0.0 | 3.2 | 0.00 | 0.00 | 0.00 | 33 | 1012.1 |
| 20260505084230 | 16 | 302 | 0.0 | 1.6 | 0.00 | 0.00 | 0.00 | 33 | 1012.2 |
| 20260505083730 | 16 | 276 | 0.0 | 1.6 | 0.00 | 0.00 | 0.00 | 33 | 1012.3 |
| 20260505083223 | 16 | 264 | 0.0 | 6.4 | 0.00 | 0.00 | 0.00 | 32 | 1012.4 |
| 20260505083209 | 16 | 264 | 1.6 | 6.4 | 0.00 | 0.00 | 0.00 | 32 | 1012.4 |
| 20260505082218 | 16 | 290 | 3.2 | 12.9 | 0.00 | 0.00 | 0.00 | 32 | 1012.3 |
| 20260505081718 | 16 | 271 | 3.2 | 12.9 | 0.00 | 0.00 | 0.00 | 32 | 1012.3 |
| 20260505081218 | 16 | 254 | 3.2 | 11.3 | 0.00 | 0.00 | 0.00 | 32 | 1012.4 |
| 20260505080717 | 16 | 267 | 3.2 | 11.3 | 0.00 | 0.00 | 0.00 | 31 | 1012.4 |
| 20260505080218 | 16 | 234 | 3.2 | 11.3 | 0.00 | 0.00 | 0.00 | 31 | 1012.4 |
| 20260505075718 | 17 | 267 | 1.6 | 12.9 | 0.00 | 0.00 | 0.00 | 31 | 1012.4 |
| 20260505075217 | 17 | 263 | 3.2 | 16.1 | 0.00 | 0.00 | 0.00 | 31 | 1012.5 |
| 20260505074718 | 17 | 295 | 4.8 | 16.1 | 0.00 | 0.00 | 0.00 | 31 | 1012.5 |
| 20260505074218 | 17 | 226 | 4.8 | 12.9 | 0.00 | 0.00 | 0.00 | 31 | 1012.5 |
| 20260505073717 | 17 | 256 | 4.8 | 16.1 | 0.00 | 0.00 | 0.00 | 30 | 1012.4 |
| 20260505073218 | 17 | 286 | 6.4 | 24.1 | 0.00 | 0.00 | 0.00 | 30 | 1012.3 |
| 20260505072720 | 17 | 302 | 11.3 | 30.6 | 0.00 | 0.00 | 0.00 | 30 | 1012.1 |
| 20260505072213 | 17 | 209 | 12.9 | 30.6 | 0.00 | 0.00 | 0.00 | 30 | 1012.0 |
| 20260505071714 | 17 | 223 | 11.3 | 25.7 | 0.00 | 0.00 | 0.00 | 30 | 1012.1 |
| 20260505071214 | 17 | 310 | 11.3 | 29.0 | 0.00 | 0.00 | 0.00 | 29 | 1012.0 |
| 20260505070713 | 17 | 231 | 11.3 | 29.0 | 0.00 | 0.00 | 0.00 | 29 | 1012.1 |
| 20260505070213 | 17 | 335 | 9.7 | 24.1 | 0.00 | 0.00 | 0.00 | 29 | 1011.8 |
| 20260505065714 | 17 | 254 | 9.7 | 33.8 | 0.00 | 0.00 | 0.00 | 29 | 1011.8 |
| 20260505065213 | 17 | 202 | 9.7 | 33.8 | 0.00 | 0.00 | 0.00 | 28 | 1011.6 |
| 20260505064715 | 17 | 190 | 8.0 | 25.7 | 0.00 | 0.00 | 0.00 | 28 | 1011.8 |
| 20260505064214 | 17 | 236 | 8.0 | 19.3 | 0.00 | 0.00 | 0.00 | 28 | 1011.7 |
| 20260505063933 | 18 | 325 | 6.4 | 19.3 | 0.00 | 0.00 | 0.00 | 28 | 1011.8 |
| 20260505063433 | 18 | 255 | 6.4 | 19.3 | 0.00 | 0.00 | 0.00 | 27 | 1011.7 |
| 20260505062713 | 18 | 250 | 6.4 | 14.5 | 0.00 | 0.00 | 0.00 | 27 | 1011.7 |
| 20260505062213 | 18 | 242 | 6.4 | 14.5 | 0.00 | 0.00 | 0.00 | 27 | 1011.8 |
| 20260505061714 | 18 | 224 | 6.4 | 17.7 | 0.00 | 0.00 | 0.00 | 26 | 1012.0 |
| 20260505061214 | 18 | 209 | 4.8 | 17.7 | 0.00 | 0.00 | 0.00 | 26 | 1012.0 |
| 20260505060713 | 18 | 213 | 6.4 | 17.7 | 0.00 | 0.00 | 0.00 | 26 | 1012.0 |
| 20260505060214 | 18 | 221 | 6.4 | 12.9 | 0.00 | 0.00 | 0.00 | 26 | 1012.0 |